createdAt,value
2023-08-02T01:07:52.099Z,61.69
2023-08-02T01:14:34.397Z,60.94
2023-08-02T01:20:37.063Z,60.33
2023-08-02T01:29:21.233Z,59.93
2023-08-02T01:35:11.227Z,64.11
2023-08-02T01:41:01.631Z,63.12
2023-08-02T01:46:44.089Z,61.63
2023-08-02T01:49:23.724Z,61.33
2023-08-02T01:52:04.433Z,61.14
2023-08-02T01:54:51.267Z,60.85
2023-08-02T01:57:50.962Z,60.65
2023-08-02T02:00:29.984Z,60.28
2023-08-02T02:06:02.698Z,59.75
2023-08-02T02:08:44.924Z,59.65
2023-08-02T02:14:07.267Z,59.83
2023-08-02T02:16:49.276Z,61.84
2023-08-02T02:19:30.566Z,64.11
2023-08-02T02:22:24.552Z,63.86
2023-08-02T02:25:05.522Z,63.15
2023-08-02T02:27:53.556Z,62.36
2023-08-02T02:30:47.140Z,61.67
2023-08-02T02:33:47.601Z,61.18
2023-08-02T02:42:19.238Z,60.29
2023-08-02T02:45:05.304Z,59.75
2023-08-02T02:50:32.406Z,59.50
2023-08-02T02:53:12.929Z,61.26
2023-08-02T02:55:51.270Z,63.59
2023-08-02T02:58:24.835Z,63.89
2023-08-02T03:01:01.244Z,63.10
2023-08-02T03:03:39.240Z,62.47
2023-08-02T03:06:17.383Z,62.11
2023-08-02T03:08:54.445Z,61.67
2023-08-02T03:11:25.685Z,61.41
2023-08-02T03:13:55.787Z,61.38
2023-08-02T03:16:27.911Z,61.18
2023-08-02T03:18:58.348Z,60.80
2023-08-02T03:21:38.022Z,60.66
2023-08-02T03:24:23.790Z,60.52
2023-08-02T03:26:56.312Z,60.46
2023-08-02T03:29:29.840Z,60.46
2023-08-02T03:32:16.184Z,60.35
2023-08-02T03:34:47.259Z,60.29
2023-08-02T03:37:26.090Z,60.13
2023-08-02T03:39:57.293Z,60.04
2023-08-02T03:42:31.799Z,59.85
2023-08-02T03:45:18.295Z,59.67
2023-08-02T03:47:52.618Z,59.61
2023-08-02T03:50:44.582Z,59.56
2023-08-02T03:53:28.474Z,59.64
2023-08-02T03:56:01.874Z,59.44
2023-08-02T03:58:46.726Z,60.55
2023-08-02T04:01:27.909Z,62.88
2023-08-02T04:04:15.822Z,63.85
2023-08-02T04:06:55.046Z,62.96
2023-08-02T04:09:41.095Z,62.18
2023-08-02T04:12:38.896Z,61.66
2023-08-02T04:15:37.686Z,61.32
2023-08-02T04:21:27.334Z,60.58
2023-08-02T04:24:05.801Z,60.10
2023-08-02T04:26:54.178Z,59.85
2023-08-02T04:29:46.306Z,59.65
2023-08-02T04:32:41.297Z,59.58
2023-08-02T04:42:16.465Z,64.03
2023-08-02T05:01:23.201Z,60.35
2023-08-02T05:07:30.182Z,59.55
2023-08-02T05:16:52.793Z,62.67
2023-08-02T05:20:12.165Z,61.67
2023-08-02T05:25:51.012Z,59.80
2023-08-02T05:34:47.325Z,62.32
2023-08-02T05:37:45.918Z,61.17
2023-08-02T06:19:16.236Z,62.58
2023-08-02T06:47:11.986Z,60.24
2023-08-02T06:52:53.708Z,63.09
2023-08-02T06:55:46.930Z,62.08
2023-08-02T06:59:26.436Z,60.52
2023-08-02T07:02:13.806Z,59.96
2023-08-02T07:04:47.706Z,61.05
2023-08-02T07:07:15.677Z,62.34
2023-08-02T07:10:09.827Z,62.04
2023-08-02T07:12:38.491Z,60.24
2023-08-02T07:15:07.495Z,59.06
2023-08-02T07:17:34.744Z,59.80
2023-08-02T07:20:02.643Z,61.08
2023-08-02T07:22:30.517Z,62.23
2023-08-02T07:24:58.524Z,61.73
2023-08-02T07:27:26.440Z,60.05
2023-08-02T07:29:53.868Z,57.83
2023-08-02T07:32:21.154Z,58.95
2023-08-02T07:34:48.466Z,60.59
2023-08-02T07:37:15.944Z,60.96
2023-08-02T07:39:43.727Z,61.78
2023-08-02T07:42:20.073Z,62.49
2023-08-02T07:45:12.031Z,60.98
2023-08-02T07:47:39.608Z,58.80
2023-08-02T07:50:09.881Z,60.09
2023-08-02T07:52:47.194Z,60.35
2023-08-02T07:55:21.480Z,60.98
2023-08-02T07:57:48.680Z,61.44
2023-08-02T08:00:16.273Z,61.29
2023-08-02T08:02:43.757Z,62.69
2023-08-02T08:05:15.739Z,61.05
2023-08-02T08:07:57.832Z,58.88
2023-08-02T08:10:41.870Z,58.44
2023-08-02T08:13:10.013Z,59.72
2023-08-02T08:15:37.775Z,60.47
2023-08-02T08:18:05.055Z,61.00
2023-08-02T08:20:32.278Z,61.87
2023-08-02T08:22:59.893Z,61.73
2023-08-02T08:25:27.734Z,61.70
2023-08-02T08:27:55.486Z,62.15
2023-08-02T08:30:41.905Z,61.82
2023-08-02T08:33:30.999Z,59.78
2023-08-02T08:35:58.727Z,58.56
2023-08-02T08:38:26.567Z,58.98
2023-08-02T08:40:55.078Z,59.47
2023-08-02T08:43:27.762Z,59.62
2023-08-02T08:45:56.518Z,60.24
2023-08-02T08:48:26.446Z,59.75
2023-08-02T08:50:56.298Z,60.18
2023-08-02T08:53:32.425Z,60.49
2023-08-02T08:56:01.910Z,60.29
2023-08-02T08:58:30.321Z,60.01
2023-08-02T09:00:59.150Z,60.47
2023-08-02T09:03:27.086Z,60.57
2023-08-02T09:05:59.102Z,60.21
2023-08-02T09:08:27.949Z,59.70
2023-08-02T09:10:56.056Z,59.54
2023-08-02T09:13:28.181Z,57.97
2023-08-02T09:16:04.535Z,57.37
2023-08-02T09:18:36.934Z,56.62
2023-08-02T09:21:05.373Z,57.57
2023-08-02T09:23:32.825Z,57.19
2023-08-02T09:26:20.344Z,57.76
2023-08-02T09:29:06.010Z,57.58
2023-08-02T09:31:36.739Z,57.34
2023-08-02T09:34:04.953Z,57.23
2023-08-02T09:36:36.684Z,56.42
2023-08-02T09:39:15.278Z,56.19
2023-08-02T09:44:22.051Z,56.34
2023-08-02T09:46:50.294Z,55.69
2023-08-02T09:49:19.774Z,55.64
2023-08-02T09:51:47.420Z,55.63
2023-08-02T09:54:15.892Z,55.52
2023-08-02T09:56:43.622Z,56.06
2023-08-02T09:59:11.044Z,55.33
2023-08-02T10:01:40.728Z,55.08
2023-08-02T10:04:16.120Z,55.27
2023-08-02T10:06:47.804Z,53.61
2023-08-02T10:09:20.491Z,53.56
2023-08-02T10:11:58.651Z,53.20
2023-08-02T10:14:27.442Z,53.57
2023-08-02T10:16:57.171Z,52.82
2023-08-02T10:19:25.912Z,52.17
2023-08-02T10:21:58.163Z,52.43
2023-08-02T10:24:27.949Z,52.95
2023-08-02T10:26:58.001Z,53.24
2023-08-02T10:29:28.158Z,53.26
2023-08-02T10:31:57.320Z,53.49
2023-08-02T10:34:57.543Z,51.71
2023-08-02T10:37:55.429Z,52.22
2023-08-02T10:40:26.326Z,52.06
2023-08-02T10:43:07.409Z,51.60
2023-08-02T10:45:36.037Z,51.77
2023-08-02T10:48:24.837Z,51.45
2023-08-02T10:50:53.311Z,50.66
2023-08-02T10:53:22.138Z,50.16
2023-08-02T10:56:03.787Z,50.31
2023-08-02T10:58:57.688Z,49.46
2023-08-02T11:01:25.044Z,49.55
2023-08-02T11:03:54.149Z,49.25
2023-08-02T11:06:25.963Z,49.28
2023-08-02T11:08:54.471Z,48.15
2023-08-02T11:11:34.125Z,48.68
2023-08-02T11:14:02.638Z,48.80
2023-08-02T11:19:02.731Z,47.51
2023-08-02T11:21:30.582Z,47.29
2023-08-02T11:24:02.092Z,47.01
2023-08-02T11:26:56.001Z,47.54
2023-08-02T11:29:24.194Z,47.98
2023-08-02T11:34:25.706Z,48.19
2023-08-02T11:36:54.294Z,47.97
2023-08-02T11:39:22.436Z,47.39
2023-08-02T11:42:05.809Z,47.50
2023-08-02T11:44:39.002Z,48.06
2023-08-02T11:47:07.613Z,48.36
2023-08-02T11:49:58.619Z,48.29
2023-08-02T11:52:29.482Z,47.63
2023-08-02T11:54:57.803Z,47.42
2023-08-02T11:57:27.758Z,47.37
2023-08-02T12:00:01.035Z,45.97
2023-08-02T12:02:31.088Z,44.90
2023-08-02T12:05:05.879Z,44.57
2023-08-02T12:07:36.125Z,44.32
2023-08-02T12:10:08.691Z,44.30
2023-08-02T12:12:36.685Z,43.55
2023-08-02T12:15:12.907Z,42.45
2023-08-02T12:17:41.286Z,41.72
2023-08-02T12:20:09.506Z,41.77
2023-08-02T12:23:03.861Z,41.86
2023-08-02T12:25:47.754Z,41.14
2023-08-02T12:28:16.435Z,40.72
2023-08-02T12:31:04.230Z,39.93
2023-08-02T12:33:33.236Z,39.54
2023-08-02T12:36:01.428Z,39.97
2023-08-02T12:38:30.397Z,40.50
2023-08-02T12:40:59.739Z,40.20
2023-08-02T12:43:28.190Z,39.36
2023-08-02T12:45:56.562Z,39.41
2023-08-02T12:48:24.686Z,39.36
2023-08-02T12:50:55.793Z,39.24
2023-08-02T12:53:24.844Z,39.58
2023-08-02T12:55:54.560Z,39.48
2023-08-02T12:58:22.897Z,39.40
2023-08-02T13:00:53.719Z,38.64
2023-08-02T13:03:22.078Z,38.07
2023-08-02T13:05:50.574Z,36.92
2023-08-02T13:08:19.405Z,36.92
2023-08-02T13:10:50.464Z,36.28
2023-08-02T13:13:19.906Z,35.85
2023-08-02T13:15:48.527Z,35.68
2023-08-02T13:18:16.588Z,35.51
2023-08-02T13:20:50.844Z,35.37
2023-08-02T13:23:19.725Z,34.79
2023-08-02T13:25:51.533Z,34.51
2023-08-02T13:28:20.417Z,33.06
2023-08-02T13:30:49.026Z,33.27
2023-08-02T13:33:21.164Z,31.99
2023-08-02T13:35:50.316Z,32.35
2023-08-02T13:38:21.231Z,31.80
2023-08-02T13:40:52.225Z,30.69
2023-08-02T13:43:22.215Z,30.83
2023-08-02T13:45:51.319Z,30.98
2023-08-02T13:48:20.449Z,31.40
2023-08-02T13:50:49.986Z,32.39
2023-08-02T13:53:22.973Z,33.23
2023-08-02T13:55:53.430Z,33.65
2023-08-02T13:58:25.396Z,33.49
2023-08-02T14:00:54.869Z,33.53
2023-08-02T14:03:23.444Z,34.09
2023-08-02T14:05:52.084Z,34.34
2023-08-02T14:08:19.863Z,34.57
2023-08-02T14:10:47.888Z,35.46
2023-08-02T14:13:16.183Z,35.30
2023-08-02T14:15:44.308Z,35.17
2023-08-02T14:18:11.535Z,34.73
2023-08-02T14:20:39.657Z,34.38
2023-08-02T14:23:07.908Z,34.04
2023-08-02T14:25:35.624Z,32.45
2023-08-02T14:28:02.957Z,30.95
2023-08-02T14:30:31.793Z,31.03
2023-08-02T14:32:59.664Z,30.66
2023-08-02T14:35:28.506Z,29.34
2023-08-02T14:37:58.356Z,28.54
2023-08-02T14:40:26.565Z,28.03
2023-08-02T14:42:54.691Z,28.54
2023-08-02T14:45:22.569Z,29.42
2023-08-02T14:47:50.852Z,29.70
2023-08-02T14:50:19.109Z,30.09
2023-08-02T14:52:47.470Z,30.86
2023-08-02T14:55:16.070Z,31.45
2023-08-02T14:57:44.228Z,32.11
2023-08-02T15:00:12.938Z,32.75
2023-08-02T15:02:41.119Z,33.70
2023-08-02T15:05:10.118Z,34.12
2023-08-02T15:07:38.128Z,34.58
2023-08-02T15:10:10.724Z,34.73
2023-08-02T15:12:39.136Z,34.41
2023-08-02T15:15:13.000Z,34.80
2023-08-02T15:17:45.040Z,35.28
2023-08-02T15:20:13.728Z,35.90
2023-08-02T15:22:48.748Z,35.66
2023-08-02T15:25:20.351Z,35.46
2023-08-02T15:27:48.909Z,35.97
2023-08-02T15:30:18.087Z,36.07
2023-08-02T15:32:51.665Z,36.38
2023-08-02T15:35:20.528Z,36.57
2023-08-02T15:37:49.934Z,36.06
2023-08-02T15:40:19.169Z,35.91
2023-08-02T15:42:52.680Z,36.19
2023-08-02T15:45:23.506Z,36.61
2023-08-02T15:47:53.384Z,36.89
2023-08-02T15:50:22.355Z,37.10
2023-08-02T15:52:51.523Z,37.55
2023-08-02T15:55:21.552Z,37.96
2023-08-02T15:57:50.664Z,37.86
2023-08-02T16:00:21.846Z,38.08
2023-08-02T16:02:50.228Z,38.18
2023-08-02T16:05:20.243Z,37.97
2023-08-02T16:07:48.239Z,37.91
2023-08-02T16:10:16.530Z,38.19
2023-08-02T16:12:45.474Z,38.34
2023-08-02T16:15:13.202Z,38.46
2023-08-02T16:17:40.541Z,38.68
2023-08-02T16:20:09.857Z,38.97
2023-08-02T16:22:37.699Z,39.13
2023-08-02T16:25:07.459Z,39.17
2023-08-02T16:27:35.582Z,39.65
2023-08-02T16:30:04.460Z,39.98
2023-08-02T16:32:32.556Z,40.43
2023-08-02T16:35:00.453Z,40.73
2023-08-02T16:37:28.642Z,41.14
2023-08-02T16:39:56.375Z,41.64
2023-08-02T16:42:24.212Z,42.08
2023-08-02T16:44:51.963Z,42.35
2023-08-02T16:47:20.256Z,42.62
2023-08-02T16:49:49.051Z,43.01
2023-08-02T16:52:17.207Z,43.14
2023-08-02T16:54:46.240Z,43.33
2023-08-02T16:57:14.206Z,43.54
2023-08-02T16:59:42.144Z,43.67
2023-08-02T17:02:09.903Z,43.99
2023-08-02T17:04:37.602Z,44.04
2023-08-02T17:07:06.452Z,44.28
2023-08-02T17:09:37.159Z,44.41
2023-08-02T17:12:06.140Z,44.57
2023-08-02T17:14:34.095Z,44.76
2023-08-02T17:17:02.328Z,44.94
2023-08-02T17:19:30.083Z,44.98
2023-08-02T17:21:58.771Z,45.14
2023-08-02T17:24:26.448Z,45.26
2023-08-02T17:26:54.014Z,45.41
2023-08-02T17:29:22.327Z,45.61
2023-08-02T17:31:50.026Z,45.69
2023-08-02T17:34:17.795Z,45.75
2023-08-02T17:36:45.490Z,45.89
2023-08-02T17:39:14.285Z,46.03
2023-08-02T17:41:42.668Z,46.14
2023-08-02T17:44:10.182Z,46.13
2023-08-02T17:46:37.990Z,46.29
2023-08-02T17:49:05.851Z,46.28
2023-08-02T17:51:35.652Z,46.34
2023-08-02T17:54:03.020Z,46.59
2023-08-02T17:56:30.688Z,47.38
2023-08-02T17:58:58.342Z,48.66
2023-08-02T18:01:27.326Z,49.80
2023-08-02T18:03:54.735Z,50.61
2023-08-02T18:06:24.932Z,52.14
2023-08-02T18:08:52.243Z,53.38
2023-08-02T18:11:22.667Z,54.92
2023-08-02T18:13:50.136Z,57.32
2023-08-02T18:16:17.501Z,56.69
2023-08-02T18:18:45.790Z,58.49
2023-08-02T18:21:13.018Z,59.36
2023-08-02T18:23:41.414Z,60.41
2023-08-02T18:26:18.457Z,63.22
2023-08-02T18:28:48.209Z,61.54
2023-08-02T18:31:15.496Z,60.24
2023-08-02T18:33:45.916Z,59.92
2023-08-02T18:36:15.775Z,60.87
2023-08-02T18:38:54.163Z,62.08
2023-08-02T18:41:24.317Z,60.67
2023-08-02T18:43:52.757Z,58.26
2023-08-02T18:46:21.605Z,57.01
2023-08-02T18:48:49.170Z,58.20
2023-08-02T18:51:17.565Z,58.59
2023-08-02T18:53:49.306Z,59.99
2023-08-02T18:56:18.106Z,60.32
2023-08-02T18:58:47.887Z,60.98
2023-08-02T19:01:15.294Z,61.39
2023-08-02T19:03:42.986Z,61.63
2023-08-02T19:06:10.322Z,62.56
2023-08-02T19:08:43.049Z,61.30
2023-08-02T19:11:21.162Z,59.19
2023-08-02T19:13:49.769Z,57.92
2023-08-02T19:16:17.446Z,58.87
2023-08-02T19:18:44.837Z,59.82
2023-08-02T19:21:14.735Z,60.78
2023-08-02T19:23:47.045Z,61.47
2023-08-02T19:26:21.441Z,61.98
2023-08-02T19:28:52.336Z,62.68
2023-08-02T19:31:21.172Z,61.63
2023-08-02T19:33:49.566Z,59.59
2023-08-02T19:36:19.699Z,58.90
2023-08-02T19:38:49.419Z,60.21
2023-08-02T19:41:28.352Z,60.86
2023-08-02T19:43:58.818Z,61.47
2023-08-02T19:46:28.334Z,62.64
2023-08-02T19:48:57.823Z,61.08
2023-08-02T19:51:27.566Z,59.59
2023-08-02T19:53:55.554Z,59.30
2023-08-02T19:56:23.141Z,60.61
2023-08-02T19:59:00.255Z,60.88
2023-08-02T20:01:30.066Z,62.34
2023-08-02T20:04:02.123Z,62.65
2023-08-02T20:06:32.845Z,61.19
2023-08-02T20:09:01.640Z,59.65
2023-08-02T20:11:29.005Z,59.13
2023-08-02T20:13:57.361Z,60.31
2023-08-02T20:16:27.011Z,61.39
2023-08-02T20:18:56.596Z,62.54
2023-08-02T20:21:24.381Z,61.57
2023-08-02T20:24:02.942Z,59.59
2023-08-02T20:26:30.942Z,58.54
2023-08-02T20:28:59.495Z,59.76
2023-08-02T20:31:30.945Z,61.07
2023-08-02T20:33:58.423Z,62.62
2023-08-02T20:36:26.252Z,62.28
2023-08-02T20:38:55.771Z,59.85
2023-08-02T20:41:28.283Z,58.82
2023-08-02T20:43:57.709Z,59.63
2023-08-02T20:46:27.257Z,60.93
2023-08-02T20:48:56.846Z,61.86
2023-08-02T20:51:24.555Z,62.85
2023-08-02T20:53:52.428Z,61.80
2023-08-02T20:56:24.232Z,60.11
2023-08-02T20:58:51.646Z,58.48
2023-08-02T21:01:19.520Z,58.86
2023-08-02T21:03:47.792Z,59.80
2023-08-02T21:06:16.445Z,61.00
2023-08-02T21:08:46.458Z,61.74
2023-08-02T21:11:13.956Z,62.29
2023-08-02T21:13:43.536Z,61.36
2023-08-02T21:16:11.918Z,59.27
2023-08-02T21:18:43.678Z,58.60
2023-08-02T21:21:13.452Z,59.52
2023-08-02T21:23:42.214Z,60.49
2023-08-02T21:26:22.865Z,61.18
2023-08-02T21:28:51.163Z,61.81
2023-08-02T21:31:20.021Z,62.27
2023-08-02T21:33:47.888Z,62.44
2023-08-02T21:36:23.359Z,60.68
2023-08-02T21:38:53.367Z,58.76
2023-08-02T21:41:21.211Z,58.34
2023-08-02T21:43:50.260Z,59.44
2023-08-02T21:46:25.017Z,60.40
2023-08-02T21:48:55.536Z,61.18
2023-08-02T21:51:24.293Z,61.67
2023-08-02T21:53:53.348Z,62.14
2023-08-02T21:56:24.568Z,62.55
2023-08-02T21:59:01.288Z,62.30
2023-08-02T22:01:31.560Z,60.30
2023-08-02T22:03:59.970Z,58.81
2023-08-02T22:06:29.817Z,59.71
2023-08-02T22:08:59.700Z,60.92
2023-08-02T22:11:27.127Z,62.10
2023-08-02T22:13:55.386Z,62.42
2023-08-02T22:16:24.008Z,61.02
2023-08-02T22:18:51.638Z,58.97
2023-08-02T22:21:22.579Z,58.66
2023-08-02T22:23:50.321Z,60.17
2023-08-02T22:26:17.689Z,61.27
2023-08-02T22:28:46.650Z,62.49
2023-08-02T22:31:13.983Z,62.90
2023-08-02T22:33:41.145Z,61.62
2023-08-02T22:36:08.503Z,60.07
2023-08-02T22:41:23.319Z,58.56
2023-08-02T22:43:51.218Z,59.79
2023-08-02T22:46:18.552Z,60.70
2023-08-02T22:51:17.069Z,62.46
2023-08-02T22:53:44.915Z,62.78
2023-08-02T22:56:12.317Z,61.46
2023-08-02T22:58:40.219Z,60.05
2023-08-02T23:01:10.378Z,59.15
2023-08-02T23:03:43.288Z,60.09
2023-08-02T23:06:14.582Z,61.47
2023-08-02T23:08:42.453Z,62.41
2023-08-02T23:11:11.699Z,63.13
2023-08-02T23:13:46.788Z,61.82
2023-08-02T23:16:25.306Z,60.36
2023-08-02T23:19:00.232Z,59.40
2023-08-02T23:21:34.960Z,60.22
2023-08-02T23:24:03.862Z,61.50
2023-08-02T23:26:31.737Z,62.94
2023-08-02T23:29:01.983Z,63.31
2023-08-02T23:31:29.863Z,61.63
2023-08-02T23:33:59.843Z,60.83
2023-08-02T23:36:27.345Z,59.76
2023-08-02T23:38:54.677Z,58.92
2023-08-02T23:41:22.039Z,60.75
2023-08-02T23:43:49.384Z,62.65
2023-08-02T23:46:17.667Z,63.83
2023-08-02T23:48:45.400Z,62.33
2023-08-02T23:51:13.840Z,61.08
2023-08-02T23:53:41.171Z,60.85
2023-08-02T23:56:08.555Z,59.45
2023-08-02T23:58:35.985Z,60.53
